createdAt,value
2022-12-31T00:01:59.476Z,89001.91
2022-12-31T00:04:44.568Z,88996.50
2022-12-31T00:07:29.307Z,88988.38
2022-12-31T00:10:14.157Z,88987.88
2022-12-31T00:12:58.909Z,89005.81
2022-12-31T00:15:43.702Z,89015.91
2022-12-31T00:18:28.466Z,89027.38
2022-12-31T00:21:13.201Z,89002.16
2022-12-31T00:23:58.009Z,89001.31
2022-12-31T00:26:42.718Z,89009.78
2022-12-31T00:29:27.438Z,88998.13
2022-12-31T00:32:12.054Z,89003.59
2022-12-31T00:34:57.003Z,89006.28
2022-12-31T00:37:41.669Z,89000.50
2022-12-31T00:40:26.523Z,88996.88
2022-12-31T00:43:11.314Z,88998.03
2022-12-31T00:45:56.005Z,89012.47
2022-12-31T00:48:40.830Z,89021.03
2022-12-31T00:51:25.517Z,89031.22
2022-12-31T00:54:10.270Z,89029.09
2022-12-31T00:56:55.041Z,89030.50
2022-12-31T00:59:39.797Z,89025.88
2022-12-31T01:02:24.700Z,89021.53
2022-12-31T01:05:09.899Z,89018.72
2022-12-31T01:07:54.689Z,89017.69
2022-12-31T01:10:40.598Z,89014.81
2022-12-31T01:13:25.340Z,89011.97
2022-12-31T01:16:10.519Z,89005.97
2022-12-31T01:18:55.423Z,89004.50
2022-12-31T01:21:40.168Z,89010.47
2022-12-31T01:24:25.055Z,89014.34
2022-12-31T01:27:09.725Z,89013.25
2022-12-31T01:29:54.493Z,89024.84
2022-12-31T01:32:39.082Z,89011.22
2022-12-31T01:35:23.956Z,89031.09
2022-12-31T01:38:08.747Z,89029.00
2022-12-31T01:40:53.466Z,89035.56
2022-12-31T01:43:38.422Z,89033.41
2022-12-31T01:46:23.279Z,89041.44
2022-12-31T01:49:08.656Z,89036.81
2022-12-31T01:51:53.344Z,89033.00
2022-12-31T01:54:38.199Z,89025.47
2022-12-31T01:57:22.837Z,89025.59
2022-12-31T02:00:07.680Z,89028.97
2022-12-31T02:02:52.470Z,89028.56
2022-12-31T02:05:37.472Z,89022.19
2022-12-31T02:08:22.233Z,89022.31
2022-12-31T02:11:06.864Z,89026.31
2022-12-31T02:13:57.990Z,89033.28
2022-12-31T02:16:43.706Z,89028.63
2022-12-31T02:19:28.363Z,89038.75
2022-12-31T02:22:13.178Z,89045.97
2022-12-31T02:24:58.396Z,89036.09
2022-12-31T02:27:43.661Z,89048.44
2022-12-31T02:30:28.306Z,89041.56
2022-12-31T02:33:13.265Z,89040.59
2022-12-31T02:35:58.087Z,89048.31
2022-12-31T02:38:42.820Z,89039.81
2022-12-31T02:41:27.735Z,89041.16
2022-12-31T02:44:12.439Z,89035.47
2022-12-31T02:46:57.299Z,89051.06
2022-12-31T02:49:42.033Z,89042.56
2022-12-31T02:52:26.775Z,89052.22
2022-12-31T02:55:11.545Z,89053.19
2022-12-31T02:57:56.346Z,89045.22
2022-12-31T03:00:41.255Z,89045.47
2022-12-31T03:03:26.122Z,89051.50
2022-12-31T03:06:10.807Z,89041.47
2022-12-31T03:08:55.518Z,89041.00
2022-12-31T03:11:40.150Z,89039.31
2022-12-31T03:14:24.820Z,89048.91
2022-12-31T03:17:09.633Z,89046.94
2022-12-31T03:19:54.205Z,89043.19
2022-12-31T03:22:39.006Z,89051.13
2022-12-31T03:25:23.661Z,89058.59
2022-12-31T03:28:08.542Z,89069.50
2022-12-31T03:30:53.255Z,89071.66
2022-12-31T03:33:38.198Z,89068.59
2022-12-31T03:36:22.918Z,89063.38
2022-12-31T03:39:07.663Z,89065.72
2022-12-31T03:41:52.574Z,89069.53
2022-12-31T03:44:37.385Z,89077.84
2022-12-31T03:47:22.177Z,89072.63
2022-12-31T03:50:06.902Z,89072.69
2022-12-31T03:52:51.750Z,89070.53
2022-12-31T03:55:36.466Z,89063.47
2022-12-31T03:58:21.209Z,89062.97
2022-12-31T04:01:06.111Z,89064.59
2022-12-31T04:03:51.304Z,89060.47
2022-12-31T04:06:36.159Z,89047.84
2022-12-31T04:09:20.767Z,89035.75
2022-12-31T04:12:05.564Z,89036.25
2022-12-31T04:14:50.160Z,89038.50
2022-12-31T04:17:35.104Z,89023.31
2022-12-31T04:20:19.691Z,89044.44
2022-12-31T04:23:04.445Z,89054.00
2022-12-31T04:25:49.078Z,89048.28
2022-12-31T04:28:33.997Z,89053.22
2022-12-31T04:31:18.630Z,89062.38
2022-12-31T04:34:03.416Z,89067.97
2022-12-31T04:36:48.157Z,89059.88
2022-12-31T04:39:32.931Z,89077.38
2022-12-31T04:42:17.761Z,89078.25
2022-12-31T04:45:02.476Z,89078.38
2022-12-31T04:47:47.396Z,89091.84
2022-12-31T04:50:32.070Z,89092.34
2022-12-31T04:53:16.885Z,89097.31
2022-12-31T04:56:01.759Z,89094.63
2022-12-31T04:58:46.450Z,89095.06
2022-12-31T05:01:31.333Z,89090.72
2022-12-31T05:04:16.602Z,89095.28
2022-12-31T05:07:01.428Z,89094.56
2022-12-31T05:09:46.098Z,89097.06
2022-12-31T05:12:30.851Z,89090.16
2022-12-31T05:15:15.621Z,89098.47
2022-12-31T05:18:00.429Z,89102.81
2022-12-31T05:20:45.070Z,89099.06
2022-12-31T05:23:29.951Z,89092.06
2022-12-31T05:26:14.615Z,89099.44
2022-12-31T05:28:59.413Z,89104.44
2022-12-31T05:31:44.251Z,89106.06
2022-12-31T05:34:29.117Z,89105.59
2022-12-31T05:37:13.995Z,89117.63
2022-12-31T05:39:58.617Z,89111.66
2022-12-31T05:42:43.318Z,89122.59
2022-12-31T05:45:31.003Z,89114.78
2022-12-31T05:48:16.298Z,89123.09
2022-12-31T05:51:00.926Z,89124.72
2022-12-31T05:53:45.644Z,89117.13
2022-12-31T05:56:30.576Z,89123.69
2022-12-31T05:59:15.348Z,89125.53
2022-12-31T06:02:00.053Z,89119.69
2022-12-31T06:04:44.625Z,89132.47
2022-12-31T06:07:29.649Z,89126.44
2022-12-31T06:10:14.273Z,89132.13
2022-12-31T06:12:59.138Z,89136.97
2022-12-31T06:15:43.823Z,89141.09
2022-12-31T06:18:28.611Z,89137.78
2022-12-31T06:21:13.320Z,89143.91
2022-12-31T06:23:57.899Z,89154.78
2022-12-31T06:26:42.736Z,89162.41
2022-12-31T06:29:27.390Z,89161.78
2022-12-31T06:32:12.263Z,89156.84
2022-12-31T06:34:56.899Z,89173.16
2022-12-31T06:37:41.632Z,89174.63
2022-12-31T06:40:26.376Z,89179.53
2022-12-31T06:43:11.186Z,89183.06
2022-12-31T06:45:55.974Z,89185.69
2022-12-31T06:48:40.708Z,89189.25
2022-12-31T06:51:25.388Z,89186.78
2022-12-31T06:54:10.050Z,89182.94
2022-12-31T06:56:54.956Z,89174.88
2022-12-31T06:59:39.650Z,89164.94
2022-12-31T07:02:24.601Z,89173.50
2022-12-31T07:05:09.685Z,89173.13
2022-12-31T07:07:54.313Z,89164.28
2022-12-31T07:10:39.144Z,89162.38
2022-12-31T07:13:23.927Z,89152.09
2022-12-31T07:16:08.736Z,89166.13
2022-12-31T07:18:53.909Z,89160.97
2022-12-31T07:21:38.668Z,89165.47
2022-12-31T07:24:23.412Z,89173.75
2022-12-31T07:27:08.278Z,89165.94
2022-12-31T07:29:53.018Z,89165.69
2022-12-31T07:32:37.813Z,89168.28
2022-12-31T07:35:22.567Z,89168.84
2022-12-31T07:38:07.382Z,89179.94
2022-12-31T07:40:52.115Z,89189.22
2022-12-31T07:43:36.907Z,89199.81
2022-12-31T07:46:21.615Z,89192.91
2022-12-31T07:49:06.397Z,89199.31
2022-12-31T07:51:51.184Z,89200.97
2022-12-31T07:54:35.926Z,89193.19
2022-12-31T07:57:20.764Z,89197.03
2022-12-31T08:00:05.558Z,89196.53
2022-12-31T08:02:50.286Z,89201.28
2022-12-31T08:05:34.885Z,89210.06
2022-12-31T08:08:19.639Z,89221.56
2022-12-31T08:11:04.268Z,89217.00
2022-12-31T08:13:49.027Z,89223.63
2022-12-31T08:16:33.727Z,89220.03
2022-12-31T08:19:18.485Z,89224.38
2022-12-31T08:22:03.269Z,89220.38
2022-12-31T08:24:48.045Z,89223.31
2022-12-31T08:27:32.877Z,89220.44
2022-12-31T08:30:17.595Z,89217.44
2022-12-31T08:33:02.397Z,89224.41
2022-12-31T08:35:47.170Z,89223.09
2022-12-31T08:38:31.971Z,89215.34
2022-12-31T08:41:16.661Z,89213.44
2022-12-31T08:44:01.569Z,89221.41
2022-12-31T08:46:46.336Z,89219.72
2022-12-31T08:49:31.226Z,89218.16
2022-12-31T08:52:16.054Z,89211.00
2022-12-31T08:55:00.875Z,89223.38
2022-12-31T08:57:45.778Z,89222.38
2022-12-31T09:00:30.523Z,89226.41
2022-12-31T09:03:15.462Z,89212.16
2022-12-31T09:06:00.612Z,89212.34
2022-12-31T09:08:45.402Z,89217.56
2022-12-31T09:11:30.278Z,89222.00
2022-12-31T09:14:15.079Z,89223.13
2022-12-31T09:16:59.891Z,89216.09
2022-12-31T09:19:44.617Z,89222.00
2022-12-31T09:22:29.425Z,89219.72
2022-12-31T09:25:14.041Z,89223.16
2022-12-31T09:27:58.917Z,89228.91
2022-12-31T09:30:43.677Z,89226.19
2022-12-31T09:33:28.494Z,89235.66
2022-12-31T09:36:13.724Z,89231.34
2022-12-31T09:38:58.557Z,89231.03
2022-12-31T09:41:43.214Z,89230.94
2022-12-31T09:44:28.228Z,89236.78
2022-12-31T09:47:12.942Z,89236.78
2022-12-31T09:49:57.822Z,89233.28
2022-12-31T09:52:42.677Z,89232.06
2022-12-31T09:55:27.338Z,89231.47
2022-12-31T09:58:12.169Z,89227.44
2022-12-31T10:00:57.075Z,89234.38
2022-12-31T10:03:42.268Z,89234.06
2022-12-31T10:06:27.036Z,89238.50
2022-12-31T10:09:11.804Z,89231.53
2022-12-31T10:11:56.625Z,89225.81
2022-12-31T10:14:47.191Z,89219.88
2022-12-31T10:17:32.831Z,89220.06
2022-12-31T10:20:17.758Z,89211.53
2022-12-31T10:23:02.519Z,89205.56
2022-12-31T10:25:47.467Z,89200.41
2022-12-31T10:28:32.105Z,89194.03
2022-12-31T10:31:16.895Z,89195.59
2022-12-31T10:34:01.981Z,89188.31
2022-12-31T10:36:46.603Z,89189.59
2022-12-31T10:39:31.408Z,89190.53
2022-12-31T10:42:16.229Z,89186.91
2022-12-31T10:45:00.919Z,89174.13
2022-12-31T10:47:45.778Z,89170.81
2022-12-31T10:50:30.584Z,89172.38
2022-12-31T10:53:15.304Z,89161.38
2022-12-31T10:56:00.221Z,89153.56
2022-12-31T10:58:45.032Z,89159.06
2022-12-31T11:01:29.814Z,89150.94
2022-12-31T11:04:14.948Z,89158.31
2022-12-31T11:06:59.740Z,89157.66
2022-12-31T11:09:44.357Z,89156.94
2022-12-31T11:12:29.432Z,89152.91
2022-12-31T11:15:14.106Z,89151.88
2022-12-31T11:17:58.871Z,89149.78
2022-12-31T11:20:43.638Z,89153.31
2022-12-31T11:23:28.460Z,89129.03
2022-12-31T11:26:13.333Z,89132.75
2022-12-31T11:28:57.991Z,89128.09
2022-12-31T11:31:42.790Z,89121.47
2022-12-31T11:34:27.417Z,89114.31
2022-12-31T11:37:12.265Z,89115.41
2022-12-31T11:39:56.894Z,89108.44
2022-12-31T11:42:41.791Z,89107.53
2022-12-31T11:45:26.735Z,89111.19
2022-12-31T11:51:16.558Z,89109.16
2022-12-31T11:54:01.326Z,89099.91
2022-12-31T11:56:46.082Z,89094.03
2022-12-31T11:59:30.915Z,89094.75
2022-12-31T12:02:15.753Z,89098.00
2022-12-31T12:05:03.831Z,89088.63
2022-12-31T12:07:55.146Z,89090.09
2022-12-31T12:10:39.816Z,89081.22
2022-12-31T12:13:24.733Z,89082.47
2022-12-31T12:16:09.556Z,89090.16
2022-12-31T12:18:54.920Z,89075.31
2022-12-31T12:21:39.673Z,89073.94
2022-12-31T12:24:24.428Z,89072.53
2022-12-31T12:27:09.258Z,89069.38
2022-12-31T12:29:53.999Z,89059.25
2022-12-31T12:32:38.749Z,89059.25
2022-12-31T12:35:23.512Z,89052.59
2022-12-31T12:38:08.160Z,89055.25
2022-12-31T12:40:52.950Z,89047.91
2022-12-31T12:43:37.797Z,89046.38
2022-12-31T12:46:22.557Z,89047.41
2022-12-31T12:49:07.416Z,89037.44
2022-12-31T12:51:52.336Z,89038.69
2022-12-31T12:54:37.041Z,89028.19
2022-12-31T12:57:21.774Z,89030.66
2022-12-31T13:00:06.519Z,89026.44
2022-12-31T13:02:51.350Z,89028.72
2022-12-31T13:05:35.997Z,89023.81
2022-12-31T13:08:20.880Z,89026.63
2022-12-31T13:11:05.763Z,89031.69
2022-12-31T13:13:50.533Z,89027.31
2022-12-31T13:16:35.331Z,89036.94
2022-12-31T13:19:20.081Z,89030.81
2022-12-31T13:22:04.818Z,89039.41
2022-12-31T13:24:49.440Z,89040.44
2022-12-31T13:27:34.437Z,89044.47
2022-12-31T13:30:19.304Z,89041.84
2022-12-31T13:33:04.258Z,89047.09
2022-12-31T13:35:49.029Z,89047.28
2022-12-31T13:38:33.793Z,89049.91
2022-12-31T13:41:18.419Z,89043.94
2022-12-31T13:44:03.177Z,89032.56
2022-12-31T13:46:47.861Z,89026.44
2022-12-31T13:49:32.550Z,89022.22
2022-12-31T13:52:17.481Z,89027.47
2022-12-31T13:55:02.351Z,89024.69
2022-12-31T13:57:47.027Z,89030.09
2022-12-31T14:00:31.690Z,89035.53
2022-12-31T14:03:16.516Z,89030.28
2022-12-31T14:06:01.200Z,89036.91
2022-12-31T14:08:45.984Z,89039.53
2022-12-31T14:11:30.813Z,89033.06
2022-12-31T14:14:15.615Z,89039.50
2022-12-31T14:17:00.454Z,89039.69
2022-12-31T14:19:45.247Z,89035.13
2022-12-31T14:22:30.027Z,89044.72
2022-12-31T14:25:14.609Z,89043.81
2022-12-31T14:27:59.532Z,89043.47
2022-12-31T14:30:44.272Z,89059.22
2022-12-31T14:33:29.289Z,89057.28
2022-12-31T14:36:14.103Z,89064.97
2022-12-31T14:38:58.843Z,89059.16
2022-12-31T14:41:43.567Z,89063.53
2022-12-31T14:44:28.302Z,89069.63
2022-12-31T14:47:12.983Z,89069.59
2022-12-31T14:49:57.806Z,89072.91
2022-12-31T14:52:42.745Z,89077.44
2022-12-31T14:55:27.601Z,89083.75
2022-12-31T14:58:28.810Z,89089.84
2022-12-31T15:01:14.328Z,89087.03
2022-12-31T15:03:59.610Z,89091.72
2022-12-31T15:06:44.362Z,89099.72
2022-12-31T15:09:29.183Z,89093.28
2022-12-31T15:12:13.970Z,89098.13
2022-12-31T15:14:58.639Z,89102.13
2022-12-31T15:17:43.644Z,89096.13
2022-12-31T15:20:28.436Z,89097.78
2022-12-31T15:23:13.332Z,89106.31
2022-12-31T15:25:58.001Z,89103.81
2022-12-31T15:28:42.900Z,89108.63
2022-12-31T15:31:27.685Z,89115.41
2022-12-31T15:34:13.025Z,89105.78
2022-12-31T15:36:58.213Z,89116.31
2022-12-31T15:39:42.972Z,89105.47
2022-12-31T15:42:37.674Z,89104.19
2022-12-31T15:45:23.531Z,89108.72
2022-12-31T15:48:08.199Z,89108.34
2022-12-31T15:50:52.958Z,89111.06
2022-12-31T15:53:37.800Z,89110.50
2022-12-31T15:56:22.527Z,89117.63
2022-12-31T15:59:07.372Z,89107.50
2022-12-31T16:01:52.058Z,89117.06
2022-12-31T16:04:37.393Z,89108.81
2022-12-31T16:07:21.999Z,89101.28
2022-12-31T16:10:06.841Z,89115.38
2022-12-31T16:12:51.468Z,89125.47
2022-12-31T16:15:36.334Z,89118.03
2022-12-31T16:18:23.188Z,89119.44
2022-12-31T16:21:08.114Z,89129.78
2022-12-31T16:23:53.016Z,89139.97
2022-12-31T16:26:37.837Z,89132.19
2022-12-31T16:29:22.722Z,89134.13
2022-12-31T16:32:07.459Z,89133.94
2022-12-31T16:34:52.271Z,89139.78
2022-12-31T16:37:36.977Z,89143.41
2022-12-31T16:40:21.809Z,89138.06
2022-12-31T16:43:06.541Z,89137.69
2022-12-31T16:45:51.218Z,89138.28
2022-12-31T16:48:36.040Z,89132.38
2022-12-31T16:51:20.818Z,89136.09
2022-12-31T16:54:05.704Z,89133.16
2022-12-31T16:56:50.556Z,89138.59
2022-12-31T16:59:35.823Z,89131.97
2022-12-31T17:02:21.225Z,89147.97
2022-12-31T17:05:06.092Z,89147.97
2022-12-31T17:07:51.241Z,89145.13
2022-12-31T17:10:36.791Z,89140.91
2022-12-31T17:13:30.028Z,89136.69
2022-12-31T17:16:15.725Z,89133.16
2022-12-31T17:19:00.317Z,89140.53
2022-12-31T17:21:45.244Z,89138.13
2022-12-31T17:24:29.957Z,89140.00
2022-12-31T17:27:14.650Z,89143.75
2022-12-31T17:29:59.452Z,89139.81
2022-12-31T17:32:44.285Z,89138.41
2022-12-31T17:35:29.063Z,89140.13
2022-12-31T17:38:13.970Z,89148.84
2022-12-31T17:40:58.885Z,89138.22
2022-12-31T17:43:43.677Z,89139.72
2022-12-31T17:46:28.567Z,89141.31
2022-12-31T17:49:13.221Z,89138.91
2022-12-31T17:51:57.944Z,89125.47
2022-12-31T17:54:42.737Z,89139.91
2022-12-31T17:57:27.555Z,89136.69
2022-12-31T18:00:12.412Z,89129.78
2022-12-31T18:02:57.124Z,89137.59
2022-12-31T18:05:41.979Z,89131.16
2022-12-31T18:08:26.651Z,89136.22
2022-12-31T18:11:11.387Z,89134.69
2022-12-31T18:13:56.137Z,89133.91
2022-12-31T18:16:40.991Z,89139.13
2022-12-31T18:22:30.431Z,89142.13
2022-12-31T18:25:15.213Z,89143.53
2022-12-31T18:28:00.052Z,89146.66
2022-12-31T18:30:44.844Z,89149.44
2022-12-31T18:33:30.243Z,89140.31
2022-12-31T18:36:14.979Z,89141.53
2022-12-31T18:38:59.735Z,89138.41
2022-12-31T18:41:44.553Z,89146.03
2022-12-31T18:44:29.442Z,89144.13
2022-12-31T18:47:14.127Z,89146.53
2022-12-31T18:49:59.079Z,89151.06
2022-12-31T18:52:43.763Z,89148.44
2022-12-31T18:55:28.469Z,89155.59
2022-12-31T18:58:13.216Z,89165.34
2022-12-31T19:00:58.083Z,89157.28
2022-12-31T19:03:43.257Z,89159.91
2022-12-31T19:06:27.921Z,89160.72
2022-12-31T19:09:30.986Z,89155.09
2022-12-31T19:12:17.504Z,89158.81
2022-12-31T19:15:02.212Z,89155.28
2022-12-31T19:17:46.818Z,89151.06
2022-12-31T19:20:31.674Z,89159.81
2022-12-31T19:23:16.477Z,89159.59
2022-12-31T19:26:01.229Z,89159.81
2022-12-31T19:28:46.100Z,89150.88
2022-12-31T19:31:30.967Z,89155.69
2022-12-31T19:34:15.605Z,89162.91
2022-12-31T19:37:00.384Z,89156.28
2022-12-31T19:39:45.070Z,89161.19
2022-12-31T19:42:29.709Z,89159.09
2022-12-31T19:45:14.459Z,89153.78
2022-12-31T19:47:59.120Z,89158.84
2022-12-31T19:50:43.956Z,89157.75
2022-12-31T19:53:28.625Z,89156.84
2022-12-31T19:56:13.403Z,89159.16
2022-12-31T19:58:58.300Z,89159.16
2022-12-31T20:01:43.004Z,89155.97
2022-12-31T20:04:28.092Z,89157.66
2022-12-31T20:07:12.839Z,89166.09
2022-12-31T20:09:57.636Z,89161.97
2022-12-31T20:12:44.552Z,89162.47
2022-12-31T20:15:29.642Z,89166.56
2022-12-31T20:18:14.482Z,89163.53
2022-12-31T20:20:59.146Z,89172.28
2022-12-31T20:23:44.204Z,89170.16
2022-12-31T20:26:29.011Z,89168.06
2022-12-31T20:29:13.854Z,89171.38
2022-12-31T20:31:58.606Z,89171.88
2022-12-31T20:34:43.253Z,89168.13
2022-12-31T20:37:28.053Z,89171.31
2022-12-31T20:40:12.821Z,89166.41
2022-12-31T20:42:57.488Z,89171.84
2022-12-31T20:45:42.369Z,89174.22
2022-12-31T20:48:27.159Z,89168.59
2022-12-31T20:51:11.749Z,89167.97
2022-12-31T20:53:56.539Z,89176.09
2022-12-31T20:56:41.339Z,89168.97
2022-12-31T20:59:26.583Z,89172.38
2022-12-31T21:02:20.962Z,89166.91
2022-12-31T21:05:06.669Z,89170.72
2022-12-31T21:07:51.671Z,89171.91
2022-12-31T21:10:36.385Z,89180.44
2022-12-31T21:13:21.060Z,89184.03
2022-12-31T21:16:06.079Z,89186.84
2022-12-31T21:18:50.791Z,89180.44
2022-12-31T21:21:35.589Z,89177.34
2022-12-31T21:24:23.840Z,89178.09
2022-12-31T21:27:09.434Z,89179.31
2022-12-31T21:30:17.855Z,89174.09
2022-12-31T21:32:59.157Z,89174.97
2022-12-31T21:35:51.923Z,89179.25
2022-12-31T21:38:38.660Z,89178.31
2022-12-31T21:41:24.259Z,89183.13
2022-12-31T21:44:09.234Z,89177.63
2022-12-31T21:47:33.107Z,89186.88
2022-12-31T21:49:59.631Z,89193.50
2022-12-31T21:52:44.431Z,89189.69
2022-12-31T21:55:29.229Z,89194.25
2022-12-31T21:58:29.387Z,89190.94
2022-12-31T22:01:14.600Z,89197.88
2022-12-31T22:03:59.877Z,89209.47
2022-12-31T22:06:44.456Z,89198.84
2022-12-31T22:09:29.367Z,89186.00
2022-12-31T22:12:13.958Z,89187.91
2022-12-31T22:15:14.299Z,89193.13
2022-12-31T22:17:59.975Z,89197.94
2022-12-31T22:20:44.768Z,89191.78
2022-12-31T22:23:29.568Z,89190.16
2022-12-31T22:26:14.346Z,89193.28
2022-12-31T22:28:59.428Z,89192.34
2022-12-31T22:31:44.672Z,89196.38
2022-12-31T22:34:29.672Z,89191.38
2022-12-31T22:37:46.449Z,89194.63
2022-12-31T22:40:19.225Z,89199.91
2022-12-31T22:43:03.996Z,89205.38
2022-12-31T22:45:48.794Z,89201.00
2022-12-31T22:48:33.790Z,89205.25
2022-12-31T22:51:18.482Z,89208.28
2022-12-31T22:54:03.212Z,89206.09
2022-12-31T22:56:47.991Z,89207.50
2022-12-31T22:59:32.873Z,89212.03
2022-12-31T23:02:17.581Z,89212.22
2022-12-31T23:05:15.330Z,89216.25
2022-12-31T23:08:03.544Z,89213.84
2022-12-31T23:10:53.028Z,89220.69
2022-12-31T23:13:37.786Z,89224.50
2022-12-31T23:16:22.705Z,89232.31
2022-12-31T23:19:07.423Z,89232.53
2022-12-31T23:21:52.277Z,89228.31
2022-12-31T23:24:37.380Z,89234.41
2022-12-31T23:27:22.295Z,89231.09
2022-12-31T23:30:07.128Z,89240.78
2022-12-31T23:32:51.987Z,89241.53
2022-12-31T23:35:36.649Z,89239.00
2022-12-31T23:38:21.390Z,89255.13
2022-12-31T23:41:06.226Z,89249.00
2022-12-31T23:43:50.983Z,89254.72
2022-12-31T23:46:35.808Z,89255.00
2022-12-31T23:49:20.442Z,89263.50
2022-12-31T23:52:05.278Z,89251.88
2022-12-31T23:54:49.977Z,89262.53
2022-12-31T23:57:34.662Z,89255.63
